Time;durP1;ratioP1;P1;durP2;ratioP2;P2;SDS_P1;SDS_P2;PMS_P1;PMS_P2;Temp;Humidity;BMP_temperature;BMP_pressure;BME280_temperature;BME280_humidity;BME280_pressure;Samples;Min_cycle;Max_cycle;Signal;HPM_P1;HPM_P2
2021/04/22 00:02:18;;;;;;;20.27;18.67;;;9.90;99.90;;;;;;5033211;28;20453;-70
2021/04/22 00:04:45;;;;;;;20.83;19.13;;;9.90;99.90;;;;;;5033232;28;20515;-69
2021/04/22 00:07:11;;;;;;;21.43;19.73;;;9.90;99.90;;;;;;5033299;28;20441;-69
2021/04/22 00:09:38;;;;;;;23.70;21.63;;;9.80;99.90;;;;;;5033158;28;20453;-70
2021/04/22 00:12:06;;;;;;;21.33;19.60;;;9.90;99.90;;;;;;5033302;28;20833;-69
2021/04/22 00:14:32;;;;;;;21.77;19.70;;;9.90;99.90;;;;;;5032933;28;20495;-70
2021/04/22 00:16:58;;;;;;;21.70;20.03;;;10.00;99.90;;;;;;5032870;28;20939;-69
2021/04/22 00:19:25;;;;;;;21.07;19.47;;;10.00;99.90;;;;;;5033070;28;20530;-69
2021/04/22 00:21:51;;;;;;;21.37;19.60;;;10.10;99.90;;;;;;5032784;28;20452;-69
2021/04/22 00:24:17;;;;;;;21.50;19.60;;;10.20;99.90;;;;;;5033083;28;20452;-69
2021/04/22 00:26:43;;;;;;;22.27;20.27;;;10.20;99.90;;;;;;5032930;28;20817;-69
2021/04/22 00:29:10;;;;;;;21.00;19.20;;;10.40;99.90;;;;;;5032660;28;20862;-69
2021/04/22 00:31:36;;;;;;;19.63;18.13;;;10.40;99.90;;;;;;5032614;28;20469;-66
2021/04/22 00:34:03;;;;;;;21.07;19.57;;;10.60;99.90;;;;;;5032440;28;20895;-69
2021/04/22 00:36:29;;;;;;;19.83;18.40;;;10.70;99.90;;;;;;5032705;28;20444;-68
2021/04/22 00:38:55;;;;;;;22.03;20.47;;;10.80;99.90;;;;;;5032353;28;20979;-68
2021/04/22 00:41:21;;;;;;;21.23;19.33;;;10.90;99.90;;;;;;5032357;28;20444;-69
2021/04/22 00:43:48;;;;;;;18.90;17.60;;;11.00;99.90;;;;;;5032527;28;20445;-69
2021/04/22 00:46:15;;;;;;;20.73;19.10;;;10.90;99.90;;;;;;5032385;28;20456;-67
2021/04/22 00:48:41;;;;;;;19.60;18.10;;;11.00;99.90;;;;;;5032278;28;20951;-68
2021/04/22 00:51:07;;;;;;;19.80;17.90;;;11.00;99.90;;;;;;5032202;28;20455;-67
2021/04/22 00:53:33;;;;;;;21.30;19.57;;;11.10;99.90;;;;;;5032276;28;20481;-67
2021/04/22 00:56:00;;;;;;;20.80;19.20;;;11.10;99.90;;;;;;5031662;28;20806;-68
2021/04/22 00:58:26;;;;;;;21.80;20.20;;;11.20;99.90;;;;;;5032115;28;20510;-66
2021/04/22 01:00:56;;;;;;;19.57;18.03;;;11.30;99.90;;;;;;5031995;28;20457;-65
2021/04/22 01:03:23;;;;;;;20.40;18.90;;;11.40;99.90;;;;;;5031834;28;20954;-65
2021/04/22 01:05:53;;;;;;;21.30;19.60;;;11.40;99.90;;;;;;5031999;28;20448;-66
2021/04/22 01:08:19;;;;;;;23.97;22.07;;;11.60;99.90;;;;;;5032113;28;20453;-67
2021/04/22 01:10:46;;;;;;;33.50;31.40;;;11.50;99.90;;;;;;5031755;28;20518;-68
2021/04/22 01:13:12;;;;;;;35.60;33.20;;;11.40;99.90;;;;;;5031438;28;20546;-69
2021/04/22 01:15:39;;;;;;;35.53;33.13;;;11.30;99.90;;;;;;5031658;28;20865;-69
2021/04/22 01:18:06;;;;;;;38.10;35.47;;;11.10;99.90;;;;;;5031900;28;20468;-69
2021/04/22 01:20:35;;;;;;;36.70;34.50;;;10.90;99.90;;;;;;5031853;28;20461;-69
2021/04/22 01:23:04;;;;;;;35.53;33.23;;;10.80;99.90;;;;;;5031235;28;20492;-69
2021/04/22 01:25:33;;;;;;;35.07;32.43;;;10.70;99.90;;;;;;5031426;28;20636;-68
2021/04/22 01:28:01;;;;;;;37.73;35.00;;;10.60;99.90;;;;;;5031385;28;20447;-68
2021/04/22 01:30:29;;;;;;;40.10;37.33;;;10.40;99.90;;;;;;5031405;28;20459;-68
2021/04/22 01:32:56;;;;;;;38.73;36.07;;;10.40;99.90;;;;;;5031133;28;20477;-67
2021/04/22 01:35:25;;;;;;;37.87;35.07;;;10.30;99.90;;;;;;5031269;28;20452;-68
2021/04/22 01:37:52;;;;;;;39.00;35.87;;;10.20;99.90;;;;;;5031379;28;20452;-69
2021/04/22 01:40:20;;;;;;;39.27;36.63;;;10.00;99.90;;;;;;5031333;28;20459;-69
2021/04/22 01:42:46;;;;;;;42.67;39.27;;;10.00;99.90;;;;;;5031295;28;20804;-69
2021/04/22 01:45:14;;;;;;;39.80;36.60;;;10.00;99.90;;;;;;5031169;28;20465;-69
2021/04/22 01:47:41;;;;;;;40.27;37.63;;;10.00;99.90;;;;;;5031213;28;20862;-68
2021/04/22 01:50:11;;;;;;;40.40;37.30;;;10.10;99.90;;;;;;5031308;28;20457;-68
2021/04/22 01:52:37;;;;;;;40.67;37.43;;;10.10;99.90;;;;;;5030835;28;20437;-68
2021/04/22 01:55:05;;;;;;;40.13;37.30;;;10.10;99.90;;;;;;5031413;28;20449;-67
2021/04/22 01:57:32;;;;;;;40.17;37.27;;;10.10;99.90;;;;;;5030804;28;21013;-68
2021/04/22 01:59:59;;;;;;;39.17;36.47;;;10.10;99.90;;;;;;5031144;28;20454;-67
2021/04/22 02:02:25;;;;;;;41.10;37.93;;;10.10;99.90;;;;;;5031034;28;20457;-68
2021/04/22 02:04:51;;;;;;;41.17;37.87;;;10.20;99.90;;;;;;5031335;28;20459;-67
2021/04/22 02:07:17;;;;;;;37.30;34.60;;;10.20;99.90;;;;;;5030220;28;20519;-67
2021/04/22 02:09:43;;;;;;;36.83;34.27;;;10.20;99.90;;;;;;5031108;28;20453;-68
2021/04/22 02:12:10;;;;;;;35.67;33.17;;;10.30;99.90;;;;;;5030929;28;20830;-67
2021/04/22 02:14:37;;;;;;;35.13;32.17;;;10.30;99.90;;;;;;5030822;28;20512;-68
2021/04/22 02:17:03;;;;;;;33.70;31.17;;;10.20;99.90;;;;;;5012571;28;20987;-69
2021/04/22 02:19:29;;;;;;;33.87;31.33;;;10.10;99.90;;;;;;5015364;28;20483;-68
2021/04/22 02:21:56;;;;;;;32.80;30.50;;;10.10;99.90;;;;;;5030808;28;20445;-69
2021/04/22 02:24:22;;;;;;;33.73;31.20;;;10.10;99.90;;;;;;5030616;28;20472;-68
2021/04/22 02:26:48;;;;;;;33.13;30.43;;;10.00;99.90;;;;;;5031013;28;20452;-69
2021/04/22 02:29:14;;;;;;;33.93;31.07;;;9.90;99.90;;;;;;5030948;28;20459;-68
2021/04/22 02:31:41;;;;;;;32.03;29.40;;;9.90;99.90;;;;;;5030752;28;20461;-69
2021/04/22 02:34:07;;;;;;;33.10;30.47;;;9.80;99.90;;;;;;5030526;28;20986;-69
2021/04/22 02:36:33;;;;;;;31.00;28.60;;;9.70;99.90;;;;;;5031102;28;20505;-68
2021/04/22 02:39:00;;;;;;;32.10;29.77;;;9.60;99.90;;;;;;5030856;28;20940;-68
2021/04/22 02:41:26;;;;;;;32.47;29.97;;;9.60;99.90;;;;;;5030566;28;20983;-68
2021/04/22 02:43:52;;;;;;;33.03;30.53;;;9.60;99.90;;;;;;5030442;28;20495;-68
2021/04/22 02:46:18;;;;;;;34.70;31.67;;;9.50;99.90;;;;;;5031011;28;20459;-69
2021/04/22 02:48:45;;;;;;;32.97;30.37;;;9.60;99.90;;;;;;5030907;28;20857;-68
2021/04/22 02:51:11;;;;;;;33.70;31.10;;;9.70;99.90;;;;;;5030821;28;20445;-68
2021/04/22 02:53:38;;;;;;;32.00;29.43;;;9.80;99.90;;;;;;5029894;28;20489;-69
2021/04/22 02:56:04;;;;;;;30.37;28.07;;;9.80;99.90;;;;;;5030998;28;20471;-69
2021/04/22 02:58:31;;;;;;;30.90;28.30;;;9.90;99.90;;;;;;5030785;28;20460;-68
2021/04/22 03:00:57;;;;;;;32.97;30.67;;;10.00;99.90;;;;;;5030729;28;20947;-68
2021/04/22 03:03:24;;;;;;;33.90;31.23;;;10.10;99.90;;;;;;5030563;28;20511;-68
2021/04/22 03:05:54;;;;;;;33.23;30.80;;;10.10;99.90;;;;;;5030820;28;20969;-68
2021/04/22 03:08:20;;;;;;;33.73;31.13;;;10.20;99.90;;;;;;5030687;28;20582;-69
2021/04/22 03:10:46;;;;;;;36.23;32.90;;;10.30;99.90;;;;;;5030660;28;20456;-67
2021/04/22 03:13:13;;;;;;;37.27;34.07;;;10.30;99.90;;;;;;5030257;28;20477;-67
2021/04/22 03:15:39;;;;;;;37.37;34.27;;;10.40;99.90;;;;;;5030381;28;20464;-67
2021/04/22 03:18:06;;;;;;;37.50;34.00;;;10.40;99.90;;;;;;5030865;28;20461;-67
2021/04/22 03:20:32;;;;;;;37.17;34.07;;;10.40;99.90;;;;;;5033899;28;20923;-68
2021/04/22 03:23:00;;;;;;;39.33;35.63;;;10.50;99.90;;;;;;5033782;28;20481;-68
2021/04/22 03:25:28;;;;;;;40.10;36.50;;;10.60;99.90;;;;;;5033918;28;20851;-68
2021/04/22 03:27:55;;;;;;;40.93;37.33;;;10.70;99.90;;;;;;5033747;28;20513;-69
2021/04/22 03:30:24;;;;;;;36.00;32.60;;;10.70;99.90;;;;;;5033894;28;20449;-69
2021/04/22 03:32:51;;;;;;;39.07;35.47;;;10.70;99.90;;;;;;5033728;28;20471;-69
2021/04/22 03:35:18;;;;;;;40.07;36.60;;;10.80;99.90;;;;;;5033713;28;20455;-69
2021/04/22 03:37:44;;;;;;;39.10;35.20;;;10.80;99.90;;;;;;5033609;28;20912;-69
2021/04/22 03:40:14;;;;;;;36.90;33.70;;;10.80;99.90;;;;;;5033373;28;20460;-69
2021/04/22 03:42:40;;;;;;;37.40;33.53;;;10.80;99.90;;;;;;5033632;28;20452;-68
2021/04/22 03:45:09;;;;;;;31.13;28.73;;;10.70;99.90;;;;;;5033358;28;20456;-68
2021/04/22 03:47:35;;;;;;;32.50;29.53;;;10.60;99.90;;;;;;5033355;28;20455;-68
2021/04/22 03:50:03;;;;;;;32.20;29.30;;;10.60;99.90;;;;;;5033413;28;20456;-69
2021/04/22 03:52:29;;;;;;;32.47;29.57;;;10.50;99.90;;;;;;5033232;28;20441;-69
2021/04/22 03:54:55;;;;;;;32.40;29.67;;;10.50;99.90;;;;;;5032888;28;21050;-69
2021/04/22 03:57:22;;;;;;;32.70;29.67;;;10.50;99.90;;;;;;5033013;28;20482;-68
2021/04/22 03:59:49;;;;;;;30.80;28.17;;;10.50;99.90;;;;;;5033064;28;20455;-68
2021/04/22 04:02:15;;;;;;;31.10;28.60;;;10.50;99.90;;;;;;5033168;28;20966;-69
2021/04/22 04:04:41;;;;;;;31.43;28.60;;;10.50;99.90;;;;;;5032864;28;20448;-69
2021/04/22 04:07:07;;;;;;;32.40;29.50;;;10.40;99.90;;;;;;5032993;28;20612;-68
2021/04/22 04:09:33;;;;;;;35.03;31.80;;;10.40;99.90;;;;;;5032957;28;20455;-69
2021/04/22 04:12:00;;;;;;;32.53;29.60;;;10.40;99.90;;;;;;5032970;28;20461;-69
2021/04/22 04:14:27;;;;;;;31.97;29.27;;;10.30;99.90;;;;;;5032670;28;20841;-72
2021/04/22 04:16:53;;;;;;;32.30;29.50;;;10.30;99.90;;;;;;5032744;28;20825;-74
2021/04/22 04:19:19;;;;;;;35.20;32.10;;;10.20;99.90;;;;;;5032742;28;20981;-72
2021/04/22 04:25:07;;;;;;;31.73;29.13;;;10.00;99.90;;;;;;5000417;28;20463;-72
2021/04/22 04:27:34;;;;;;;33.93;30.93;;;9.90;99.90;;;;;;5032964;28;20445;-72
2021/04/22 04:30:01;;;;;;;33.43;30.10;;;9.90;99.90;;;;;;5031474;28;20930;-72
2021/04/22 04:32:27;;;;;;;34.93;31.37;;;9.80;99.90;;;;;;5032679;28;20564;-71
2021/04/22 04:34:53;;;;;;;37.40;34.07;;;9.80;99.90;;;;;;5032501;28;20564;-72
2021/04/22 04:37:20;;;;;;;34.60;31.40;;;9.70;99.90;;;;;;5032494;28;20457;-72
2021/04/22 04:39:46;;;;;;;33.80;30.63;;;9.60;99.90;;;;;;5032369;28;20449;-72
2021/04/22 04:42:12;;;;;;;34.77;31.57;;;9.60;99.90;;;;;;5032412;28;20449;-72
2021/04/22 04:44:38;;;;;;;35.67;32.20;;;9.60;99.90;;;;;;5032354;28;20569;-72
2021/04/22 04:47:05;;;;;;;35.20;31.73;;;9.60;99.90;;;;;;5032449;28;20454;-72
2021/04/22 04:49:32;;;;;;;33.57;30.10;;;9.70;99.90;;;;;;5032404;28;20465;-71
2021/04/22 04:51:58;;;;;;;31.77;28.73;;;9.60;99.90;;;;;;5032310;28;20465;-72
2021/04/22 04:54:24;;;;;;;33.80;30.80;;;9.70;99.90;;;;;;5032353;28;20901;-72
2021/04/22 04:56:50;;;;;;;34.03;30.83;;;9.70;99.90;;;;;;5032158;28;20456;-72
2021/04/22 04:59:16;;;;;;;39.10;30.43;;;9.70;99.90;;;;;;5032317;28;20445;-72
2021/04/22 05:01:43;;;;;;;34.30;31.17;;;9.80;99.90;;;;;;5032137;28;20997;-72
2021/04/22 05:04:10;;;;;;;37.47;32.73;;;9.70;99.90;;;;;;5032204;28;20448;-73
2021/04/22 05:06:37;;;;;;;35.53;32.10;;;9.80;99.90;;;;;;5032369;28;20456;-72
2021/04/22 05:09:04;;;;;;;32.57;29.33;;;9.90;99.90;;;;;;5032187;28;20460;-73
2021/04/22 05:11:30;;;;;;;33.03;29.83;;;9.90;99.90;;;;;;5031847;28;20445;-72
2021/04/22 05:13:56;;;;;;;33.87;30.70;;;9.90;99.90;;;;;;5031883;28;20488;-73
2021/04/22 05:16:22;;;;;;;35.20;31.60;;;9.90;99.90;;;;;;5031939;28;20467;-72
2021/04/22 05:18:48;;;;;;;37.77;32.17;;;9.90;99.90;;;;;;5031940;28;20473;-73
2021/04/22 05:21:16;;;;;;;32.40;29.43;;;9.80;99.90;;;;;;5031920;28;20507;-72
2021/04/22 05:23:42;;;;;;;38.60;31.67;;;9.90;99.90;;;;;;5031535;28;20479;-72
2021/04/22 05:26:08;;;;;;;33.73;30.90;;;10.00;99.90;;;;;;5031447;28;20456;-72
2021/04/22 05:28:34;;;;;;;33.63;30.23;;;10.10;99.90;;;;;;5031706;28;20460;-72
2021/04/22 05:31:01;;;;;;;31.87;28.73;;;10.20;99.90;;;;;;5031704;28;20453;-72
2021/04/22 05:33:27;;;;;;;39.27;35.30;;;10.40;99.90;;;;;;5031532;28;20876;-72
2021/04/22 05:35:53;;;;;;;35.10;31.73;;;10.50;99.90;;;;;;5031537;28;20467;-72
2021/04/22 05:38:20;;;;;;;34.33;31.17;;;10.60;99.90;;;;;;5031324;28;20943;-72
2021/04/22 05:40:46;;;;;;;34.63;31.33;;;10.70;99.90;;;;;;5031398;28;21001;-72
2021/04/22 05:43:12;;;;;;;32.30;29.30;;;10.90;99.90;;;;;;5031446;28;20457;-72
2021/04/22 05:45:39;;;;;;;33.07;29.60;;;10.90;99.90;;;;;;5031547;28;20814;-72
2021/04/22 05:48:07;;;;;;;32.93;30.10;;;11.20;99.90;;;;;;5031463;28;20954;-72
2021/04/22 05:50:33;;;;;;;33.17;29.20;;;11.40;99.90;;;;;;5031376;28;20810;-72
2021/04/22 05:52:59;;;;;;;33.00;29.63;;;11.50;99.90;;;;;;5031139;28;21000;-72
2021/04/22 05:55:27;;;;;;;30.67;27.70;;;11.80;99.90;;;;;;5031309;28;20460;-72
2021/04/22 05:57:55;;;;;;;34.37;29.13;;;12.00;99.90;;;;;;5031132;28;20461;-72
2021/04/22 06:00:22;;;;;;;38.10;30.33;;;12.10;99.90;;;;;;5031328;28;20449;-71
2021/04/22 06:02:48;;;;;;;32.60;29.33;;;12.20;99.90;;;;;;5031331;28;20461;-71
2021/04/22 06:05:15;;;;;;;33.20;30.00;;;12.40;99.90;;;;;;5031201;28;20452;-72
2021/04/22 06:07:41;;;;;;;30.93;27.90;;;12.50;99.90;;;;;;5031109;28;20543;-72
2021/04/22 06:10:08;;;;;;;30.83;27.67;;;12.30;99.90;;;;;;5030908;28;20449;-72
2021/04/22 06:12:35;;;;;;;31.03;28.23;;;12.00;99.90;;;;;;5031196;28;20445;-72
2021/04/22 06:15:02;;;;;;;31.63;28.80;;;11.90;99.90;;;;;;5031210;28;20487;-72
2021/04/22 06:17:28;;;;;;;33.63;30.10;;;11.70;99.90;;;;;;5031022;28;20543;-72
2021/04/22 06:19:54;;;;;;;30.40;27.60;;;11.60;99.90;;;;;;5030847;28;21003;-72
2021/04/22 06:22:20;;;;;;;27.83;25.50;;;11.80;99.90;;;;;;5030964;28;20449;-72
2021/04/22 06:24:46;;;;;;;27.40;25.20;;;12.00;99.90;;;;;;5031096;28;20456;-71
2021/04/22 06:27:13;;;;;;;28.90;26.50;;;11.90;99.90;;;;;;5030964;28;20460;-72
2021/04/22 06:29:40;;;;;;;32.33;29.03;;;11.90;99.90;;;;;;5031017;28;20445;-72
2021/04/22 06:32:07;;;;;;;29.33;26.23;;;12.00;99.90;;;;;;5030751;28;20452;-69
2021/04/22 06:34:33;;;;;;;28.50;25.50;;;12.20;99.90;;;;;;5030645;28;20515;-70
2021/04/22 06:37:00;;;;;;;28.90;26.20;;;12.10;99.90;;;;;;5030584;28;20452;-71
2021/04/22 06:39:26;;;;;;;28.87;26.47;;;12.20;99.90;;;;;;5030722;28;20456;-71
2021/04/22 06:41:52;;;;;;;28.40;26.00;;;12.10;99.90;;;;;;5030463;28;20522;-71
2021/04/22 06:44:19;;;;;;;31.10;27.90;;;12.10;99.90;;;;;;5030850;28;20973;-71
2021/04/22 06:46:46;;;;;;;31.30;28.80;;;12.00;99.90;;;;;;5030838;28;20475;-71
2021/04/22 06:49:12;;;;;;;29.53;26.83;;;12.20;99.90;;;;;;5030387;28;20959;-72
2021/04/22 06:51:39;;;;;;;29.27;26.17;;;12.10;99.90;;;;;;5030560;28;20464;-71
2021/04/22 06:54:05;;;;;;;31.27;28.47;;;12.30;99.90;;;;;;5032524;28;20484;-71
2021/04/22 06:56:32;;;;;;;30.27;27.57;;;12.50;99.90;;;;;;5034623;28;20453;-72
2021/04/22 06:59:00;;;;;;;32.10;29.40;;;12.60;99.90;;;;;;5034347;28;20500;-72
2021/04/22 07:01:27;;;;;;;29.43;26.57;;;12.90;99.90;;;;;;5034425;28;20452;-72
2021/04/22 07:03:54;;;;;;;29.57;26.97;;;13.10;99.90;;;;;;5034307;28;20950;-72
2021/04/22 07:06:20;;;;;;;28.67;26.17;;;13.40;99.90;;;;;;5034428;28;20452;-72
2021/04/22 07:08:47;;;;;;;27.90;25.50;;;13.20;99.90;;;;;;5034308;28;20457;-72
2021/04/22 07:11:13;;;;;;;29.30;26.17;;;13.10;99.90;;;;;;5033953;28;20457;-72
2021/04/22 07:13:40;;;;;;;29.47;26.70;;;13.00;99.90;;;;;;5033973;28;20488;-72
2021/04/22 07:16:06;;;;;;;25.73;23.43;;;12.90;99.90;;;;;;5034229;28;20800;-72
2021/04/22 07:18:32;;;;;;;26.17;24.07;;;13.00;99.90;;;;;;5034144;28;20465;-72
2021/04/22 07:21:00;;;;;;;27.37;24.87;;;13.10;99.90;;;;;;5034276;28;20449;-72
2021/04/22 07:23:27;;;;;;;26.97;24.77;;;13.50;99.90;;;;;;5033684;28;20487;-72
2021/04/22 07:25:54;;;;;;;27.30;25.00;;;14.10;99.90;;;;;;5033608;28;20464;-73
2021/04/22 07:28:20;;;;;;;27.10;24.77;;;14.80;99.90;;;;;;5033704;28;20464;-72
2021/04/22 07:30:47;;;;;;;25.97;23.20;;;15.40;99.70;;;;;;5033986;28;20457;-72
2021/04/22 07:33:13;;;;;;;27.53;25.13;;;15.80;98.00;;;;;;5033581;28;20456;-72
2021/04/22 07:35:40;;;;;;;26.73;24.60;;;16.30;96.60;;;;;;5033749;28;20453;-72
2021/04/22 07:38:11;;;;;;;26.70;24.40;;;16.20;96.20;;;;;;5033712;28;20816;-72
2021/04/22 07:40:38;;;;;;;26.20;24.10;;;15.70;96.40;;;;;;5033586;28;20459;-72
2021/04/22 07:43:04;;;;;;;24.60;22.23;;;15.50;97.10;;;;;;5033838;28;20441;-72
2021/04/22 07:45:33;;;;;;;26.60;24.17;;;15.30;97.40;;;;;;5033538;28;20449;-73
2021/04/22 07:48:00;;;;;;;26.53;24.00;;;15.00;97.70;;;;;;5033626;28;20453;-73
2021/04/22 07:50:27;;;;;;;25.63;23.63;;;14.90;98.40;;;;;;5033485;28;20631;-73
2021/04/22 07:52:54;;;;;;;26.43;24.13;;;14.70;98.50;;;;;;5033457;28;20861;-72
2021/04/22 07:55:24;;;;;;;27.67;25.10;;;14.60;98.20;;;;;;5033629;28;20519;-71
2021/04/22 07:57:50;;;;;;;25.23;23.13;;;14.40;98.80;;;;;;5033049;28;20445;-71
2021/04/22 08:00:19;;;;;;;25.20;23.17;;;14.60;99.10;;;;;;5033508;28;20449;-71
2021/04/22 08:02:47;;;;;;;23.80;21.70;;;14.70;98.70;;;;;;5033310;28;20973;-72
2021/04/22 08:05:15;;;;;;;26.20;24.00;;;14.90;98.20;;;;;;5033216;28;20445;-72
2021/04/22 08:07:42;;;;;;;25.73;23.23;;;15.00;97.70;;;;;;5033149;28;20943;-72
2021/04/22 08:10:10;;;;;;;24.50;22.40;;;14.50;98.10;;;;;;5032989;28;20946;-71
2021/04/22 08:12:38;;;;;;;25.03;23.03;;;14.60;98.60;;;;;;5033053;28;20449;-71
2021/04/22 08:15:06;;;;;;;23.63;22.00;;;14.60;98.30;;;;;;5033002;28;20488;-72
2021/04/22 08:17:32;;;;;;;25.53;23.43;;;14.60;98.40;;;;;;5033114;28;20475;-72
2021/04/22 08:20:05;;;;;;;24.67;22.70;;;14.70;97.70;;;;;;5032804;28;20477;-72
2021/04/22 08:22:31;;;;;;;25.50;22.70;;;14.80;97.80;;;;;;5033003;28;20989;-72
2021/04/22 08:24:57;;;;;;;23.03;21.33;;;15.10;97.30;;;;;;5032763;28;20448;-71
2021/04/22 08:27:23;;;;;;;25.70;23.60;;;15.40;96.60;;;;;;5032684;28;20499;-72
2021/04/22 08:29:50;;;;;;;24.20;22.27;;;15.40;96.20;;;;;;5032833;28;20453;-72
2021/04/22 08:32:17;;;;;;;24.30;22.30;;;15.80;96.40;;;;;;5032731;28;20449;-72
2021/04/22 08:34:43;;;;;;;25.63;23.60;;;16.20;94.80;;;;;;5032539;28;20489;-72
2021/04/22 08:37:09;;;;;;;25.87;23.47;;;16.60;94.30;;;;;;5032627;28;20861;-72
2021/04/22 08:39:35;;;;;;;24.63;22.83;;;17.00;93.50;;;;;;5032539;28;20453;-72
2021/04/22 08:42:03;;;;;;;23.50;21.70;;;16.80;92.70;;;;;;5032613;28;20798;-72
2021/04/22 08:44:29;;;;;;;23.77;21.87;;;17.00;93.20;;;;;;5032325;28;20812;-72
2021/04/22 08:46:57;;;;;;;24.43;22.60;;;17.10;92.10;;;;;;5032546;28;20812;-72
2021/04/22 08:49:23;;;;;;;24.93;23.03;;;17.10;91.60;;;;;;5032391;28;20453;-72
2021/04/22 08:51:50;;;;;;;25.23;23.37;;;16.70;92.00;;;;;;5032483;28;20457;-72
2021/04/22 08:54:16;;;;;;;24.03;22.13;;;16.60;92.50;;;;;;5032268;28;20481;-72
2021/04/22 08:56:44;;;;;;;23.47;21.63;;;16.80;92.40;;;;;;5032135;28;20456;-72
2021/04/22 08:59:11;;;;;;;24.67;22.70;;;17.20;91.20;;;;;;5032204;28;20552;-72
2021/04/22 09:01:38;;;;;;;23.17;21.20;;;17.70;90.90;;;;;;5032125;28;20506;-72
2021/04/22 09:04:06;;;;;;;22.83;21.00;;;19.00;89.10;;;;;;5032115;28;21054;-72
2021/04/22 09:06:34;;;;;;;23.73;22.13;;;19.80;84.10;;;;;;5032045;28;20448;-72
2021/04/22 09:09:00;;;;;;;24.07;22.20;;;19.50;83.80;;;;;;5031761;28;20805;-72
2021/04/22 09:11:27;;;;;;;21.93;20.40;;;18.50;84.30;;;;;;5031626;28;20448;-72
2021/04/22 09:13:55;;;;;;;22.00;20.50;;;18.50;84.80;;;;;;5031426;28;20492;-72
2021/04/22 09:16:24;;;;;;;22.53;20.80;;;19.00;82.60;;;;;;5030894;28;20453;-72
2021/04/22 09:18:52;;;;;;;21.43;19.83;;;18.90;81.70;;;;;;5031439;28;20465;-72
2021/04/22 09:21:22;;;;;;;22.07;20.27;;;19.30;79.60;;;;;;5031626;28;20453;-72
2021/04/22 09:23:57;;;;;;;22.53;20.73;;;18.70;79.40;;;;;;5031361;28;20473;-72
2021/04/22 09:26:34;;;;;;;23.30;21.37;;;18.90;81.80;;;;;;5031460;28;20452;-73
2021/04/22 09:29:00;;;;;;;21.77;20.13;;;19.30;78.10;;;;;;5031610;28;20452;-73
2021/04/22 09:31:28;;;;;;;20.97;19.33;;;19.40;78.90;;;;;;5031722;28;20455;-72
2021/04/22 09:34:11;;;;;;;23.00;21.20;;;19.30;77.40;;;;;;5031573;28;20868;-72
2021/04/22 09:36:47;;;;;;;20.83;19.20;;;18.70;79.80;;;;;;5031416;28;20452;-72
2021/04/22 09:39:16;;;;;;;22.30;20.50;;;19.30;78.20;;;;;;5031638;28;20445;-73
2021/04/22 09:41:42;;;;;;;21.10;19.40;;;20.40;75.40;;;;;;5031381;28;20939;-72
2021/04/22 09:44:11;;;;;;;23.93;22.20;;;21.10;73.30;;;;;;5031147;28;20453;-72
2021/04/22 09:46:41;;;;;;;21.80;19.73;;;21.40;69.70;;;;;;5031502;28;20453;-72
2021/04/22 09:49:10;;;;;;;21.27;19.67;;;21.60;67.50;;;;;;5031605;28;20797;-73
2021/04/22 09:51:37;;;;;;;19.33;18.10;;;21.00;67.40;;;;;;5031366;28;20507;-72
2021/04/22 09:54:07;;;;;;;28.47;20.83;;;22.00;65.90;;;;;;5031175;28;20485;-72
2021/04/22 09:56:46;;;;;;;20.10;18.80;;;22.00;64.00;;;;;;5031103;28;20455;-73
2021/04/22 09:59:16;;;;;;;18.97;17.70;;;22.40;62.60;;;;;;5031133;28;20449;-72
2021/04/22 10:01:43;;;;;;;19.50;18.00;;;22.70;61.40;;;;;;5031027;28;20930;-71
2021/04/22 10:04:09;;;;;;;19.47;18.27;;;22.80;60.40;;;;;;5031065;28;20449;-72
2021/04/22 10:06:40;;;;;;;21.47;19.73;;;22.40;60.00;;;;;;5030996;28;20783;-71
2021/04/22 10:09:07;;;;;;;19.10;18.00;;;23.20;59.80;;;;;;5030942;28;21013;-71
2021/04/22 10:11:49;;;;;;;19.33;17.87;;;23.60;58.10;;;;;;5030897;28;20445;-72
2021/04/22 10:14:27;;;;;;;19.27;17.87;;;22.60;56.50;;;;;;5030973;28;20578;-73
2021/04/22 10:16:53;;;;;;;19.37;18.07;;;22.20;57.90;;;;;;5030920;28;20602;-72
2021/04/22 10:19:19;;;;;;;19.50;17.83;;;22.80;56.10;;;;;;5030908;28;20480;-73
2021/04/22 10:21:46;;;;;;;18.47;17.07;;;22.60;55.10;;;;;;5030903;28;20507;-73
2021/04/22 10:24:15;;;;;;;18.93;17.33;;;22.10;54.30;;;;;;5030557;28;20508;-72
2021/04/22 10:26:42;;;;;;;18.30;16.83;;;21.30;55.60;;;;;;5030555;28;20484;-72
2021/04/22 10:29:08;;;;;;;18.93;17.47;;;21.10;55.70;;;;;;5033272;28;20519;-72
2021/04/22 10:31:35;;;;;;;19.20;17.90;;;21.20;54.60;;;;;;5035056;28;20572;-72
2021/04/22 10:34:02;;;;;;;18.93;17.73;;;21.90;54.10;;;;;;5035075;28;20484;-72
2021/04/22 10:36:31;;;;;;;17.40;16.40;;;22.10;52.00;;;;;;5034896;28;20865;-72
2021/04/22 10:38:57;;;;;;;17.50;15.90;;;22.00;50.20;;;;;;5034688;28;20448;-72
2021/04/22 10:41:31;;;;;;;17.20;16.13;;;22.50;49.10;;;;;;5034602;28;20966;-73
2021/04/22 10:43:59;;;;;;;17.37;16.00;;;23.30;47.90;;;;;;5034773;28;20471;-73
2021/04/22 10:46:26;;;;;;;16.80;15.90;;;23.00;46.60;;;;;;5034678;28;20444;-73
2021/04/22 10:48:52;;;;;;;14.97;14.17;;;22.80;45.70;;;;;;5034371;28;20943;-72
2021/04/22 10:51:18;;;;;;;14.80;13.90;;;22.30;42.60;;;;;;5034895;28;20453;-72
2021/04/22 10:53:45;;;;;;;16.00;15.13;;;22.40;41.40;;;;;;5034379;28;20897;-72
2021/04/22 10:56:11;;;;;;;17.27;16.00;;;22.20;43.20;;;;;;5034451;28;20511;-73
2021/04/22 10:58:42;;;;;;;16.63;15.53;;;22.60;44.50;;;;;;5034440;28;20437;-72
2021/04/22 11:01:11;;;;;;;15.00;14.20;;;23.00;44.30;;;;;;5034487;28;20548;-73
2021/04/22 11:03:39;;;;;;;16.00;15.17;;;23.40;42.60;;;;;;5034532;28;20455;-72
2021/04/22 11:06:08;;;;;;;15.57;14.57;;;23.70;42.00;;;;;;5034475;28;20452;-73
2021/04/22 11:08:38;;;;;;;15.10;14.27;;;23.70;39.70;;;;;;5034409;28;20453;-73
2021/04/22 11:11:16;;;;;;;14.57;13.77;;;23.40;38.60;;;;;;5034301;28;20457;-73
2021/04/22 11:13:44;;;;;;;15.73;14.60;;;23.70;38.20;;;;;;5034187;28;20484;-72
2021/04/22 11:16:10;;;;;;;15.80;14.80;;;23.50;38.20;;;;;;5034232;28;20449;-73
2021/04/22 11:18:40;;;;;;;15.57;14.57;;;22.90;37.30;;;;;;5033797;28;21048;-72
2021/04/22 11:21:19;;;;;;;14.10;13.40;;;23.00;37.40;;;;;;5034008;28;20831;-73
2021/04/22 11:23:47;;;;;;;13.83;13.13;;;23.20;36.10;;;;;;5034003;28;20472;-73
2021/04/22 11:26:31;;;;;;;14.87;14.03;;;22.50;34.40;;;;;;5033749;28;20448;-73
2021/04/22 11:29:10;;;;;;;14.70;13.87;;;22.40;35.20;;;;;;5034067;28;20475;-72
2021/04/22 11:31:45;;;;;;;14.50;13.47;;;22.90;33.30;;;;;;5033947;28;20452;-73
2021/04/22 11:34:12;;;;;;;15.57;14.50;;;23.10;33.70;;;;;;5033720;28;20476;-72
2021/04/22 11:36:47;;;;;;;15.20;14.30;;;22.90;34.90;;;;;;5033563;28;20510;-72
2021/04/22 11:39:13;;;;;;;14.57;13.70;;;22.80;34.50;;;;;;5033216;28;20518;-72
2021/04/22 11:41:50;;;;;;;15.83;14.93;;;22.70;35.00;;;;;;5033571;28;20453;-72
2021/04/22 11:44:17;;;;;;;14.80;14.10;;;22.50;35.40;;;;;;5033823;28;20445;-73
2021/04/22 11:46:46;;;;;;;16.10;15.20;;;22.40;35.80;;;;;;5033773;28;20821;-73
2021/04/22 11:49:26;;;;;;;13.70;13.07;;;22.40;35.10;;;;;;5033538;28;20452;-73
2021/04/22 11:51:52;;;;;;;14.80;13.80;;;23.00;31.50;;;;;;5033702;28;20452;-73
2021/04/22 11:54:21;;;;;;;13.57;12.97;;;23.60;30.90;;;;;;5033420;28;20978;-71
2021/04/22 11:56:59;;;;;;;14.73;13.93;;;23.60;30.60;;;;;;5033594;28;20441;-73
2021/04/22 11:59:27;;;;;;;14.10;13.30;;;23.50;29.70;;;;;;5033596;28;20939;-73
2021/04/22 12:01:59;;;;;;;13.60;12.80;;;23.50;29.00;;;;;;5032983;28;20445;-73
2021/04/22 12:04:42;;;;;;;13.40;12.70;;;23.10;29.70;;;;;;5033319;28;20453;-73
2021/04/22 12:07:11;;;;;;;14.13;13.33;;;22.90;30.00;;;;;;5033182;28;20906;-73
2021/04/22 12:09:39;;;;;;;13.20;12.60;;;23.80;29.90;;;;;;5033012;28;20457;-73
2021/04/22 12:12:10;;;;;;;12.53;12.03;;;24.10;28.30;;;;;;5033020;28;20453;-72
2021/04/22 12:14:38;;;;;;;12.97;12.37;;;23.70;28.40;;;;;;5032637;28;20484;-73
2021/04/22 12:17:05;;;;;;;13.67;12.97;;;23.10;29.90;;;;;;5032762;28;20452;-72
2021/04/22 12:19:31;;;;;;;14.07;13.33;;;22.90;30.50;;;;;;5032831;28;20476;-72
2021/04/22 12:22:00;;;;;;;13.37;12.67;;;22.80;31.20;;;;;;5032795;28;20453;-72
2021/04/22 12:24:28;;;;;;;14.57;13.77;;;22.90;31.10;;;;;;5032551;28;20546;-73
2021/04/22 12:26:54;;;;;;;13.63;12.97;;;22.40;31.90;;;;;;5032602;28;20445;-73
2021/04/22 12:29:20;;;;;;;12.50;12.00;;;21.70;32.60;;;;;;5032724;28;20478;-72
2021/04/22 12:31:50;;;;;;;13.60;12.70;;;22.00;33.00;;;;;;5032516;28;20453;-73
2021/04/22 12:34:22;;;;;;;12.80;12.10;;;22.50;31.80;;;;;;5032234;28;20488;-73